createdAt,value
2018-09-05T00:01:16.370Z,16.73
2018-09-05T00:03:53.091Z,16.37
2018-09-05T00:06:22.603Z,16.30
2018-09-05T00:08:52.738Z,16.93
2018-09-05T00:11:21.967Z,17.40
2018-09-05T00:13:55.345Z,17.13
2018-09-05T00:16:24.586Z,16.33
2018-09-05T00:19:01.515Z,18.03
2018-09-05T00:21:31.160Z,18.20
2018-09-05T00:24:03.990Z,17.27
2018-09-05T00:26:33.165Z,18.07
2018-09-05T00:29:06.646Z,17.73
2018-09-05T00:31:35.824Z,18.10
2018-09-05T00:34:12.694Z,18.13
2018-09-05T00:36:42.209Z,17.43
2018-09-05T00:39:13.213Z,18.73
2018-09-05T00:41:42.545Z,19.17
2018-09-05T00:44:16.409Z,19.03
2018-09-05T00:46:45.605Z,18.97
2018-09-05T00:49:17.999Z,19.90
2018-09-05T00:51:47.550Z,18.83
2018-09-05T00:54:20.523Z,20.70
2018-09-05T00:56:49.694Z,20.30
2018-09-05T00:59:23.797Z,21.10
2018-09-05T01:01:52.978Z,21.37
2018-09-05T01:04:26.031Z,19.47
2018-09-05T01:06:57.284Z,19.77
2018-09-05T01:09:28.432Z,19.40
2018-09-05T01:11:57.622Z,19.10
2018-09-05T01:14:30.621Z,19.60
2018-09-05T01:16:59.665Z,18.80
2018-09-05T01:19:36.224Z,18.43
2018-09-05T01:22:05.922Z,19.33
2018-09-05T01:24:36.577Z,18.30
2018-09-05T01:27:06.766Z,18.53
2018-09-05T01:29:39.588Z,19.10
2018-09-05T01:32:10.127Z,17.43
2018-09-05T01:34:42.883Z,17.27
2018-09-05T01:37:12.331Z,18.73
2018-09-05T01:39:45.008Z,18.60
2018-09-05T01:42:14.671Z,18.97
2018-09-05T01:44:47.487Z,18.50
2018-09-05T01:47:16.751Z,18.47
2018-09-05T01:49:53.271Z,18.33
2018-09-05T01:52:23.010Z,19.23
2018-09-05T01:54:53.089Z,19.10
2018-09-05T01:57:22.280Z,19.17
2018-09-05T01:59:55.752Z,19.90
2018-09-05T02:02:25.912Z,19.87
2018-09-05T02:04:58.421Z,20.87
2018-09-05T02:07:28.199Z,20.73
2018-09-05T02:10:01.120Z,20.53
2018-09-05T02:12:30.339Z,20.07
2018-09-05T02:15:07.310Z,18.53
2018-09-05T02:17:36.478Z,18.50
2018-09-05T02:20:07.529Z,19.27
2018-09-05T02:22:36.733Z,20.03
2018-09-05T02:25:10.745Z,18.93
2018-09-05T02:27:40.688Z,19.23
2018-09-05T02:30:13.357Z,19.10
2018-09-05T02:32:42.529Z,18.17
2018-09-05T02:35:15.900Z,19.43
2018-09-05T02:37:45.198Z,18.27
2018-09-05T02:40:18.841Z,18.43
2018-09-05T02:42:48.017Z,16.60
2018-09-05T02:45:20.867Z,17.40
2018-09-05T02:47:50.051Z,18.50
2018-09-05T02:50:22.689Z,18.03
2018-09-05T02:52:52.185Z,18.50
2018-09-05T02:55:30.649Z,17.70
2018-09-05T02:58:00.238Z,18.47
2018-09-05T03:00:29.459Z,18.33
2018-09-05T03:02:58.642Z,18.80
2018-09-05T03:05:31.848Z,17.83
2018-09-05T03:08:01.058Z,16.40
2018-09-05T03:10:33.680Z,17.37
2018-09-05T03:13:03.156Z,18.57
2018-09-05T03:15:35.081Z,17.97
2018-09-05T03:18:04.128Z,17.73
2018-09-05T03:20:40.358Z,18.27
2018-09-05T03:23:09.735Z,17.57
2018-09-05T03:25:42.742Z,16.77
2018-09-05T03:28:12.276Z,17.70
2018-09-05T03:30:44.202Z,17.40
2018-09-05T03:33:14.102Z,18.27
2018-09-05T03:35:47.569Z,17.60
2018-09-05T03:38:16.810Z,17.33
2018-09-05T03:40:49.646Z,17.97
2018-09-05T03:43:19.419Z,18.27
2018-09-05T03:45:55.820Z,18.70
2018-09-05T03:48:24.978Z,19.30
2018-09-05T03:51:06.376Z,19.53
2018-09-05T03:53:35.922Z,19.03
2018-09-05T03:56:05.243Z,18.33
2018-09-05T03:58:34.698Z,17.67
2018-09-05T04:01:07.320Z,17.30
2018-09-05T04:03:36.532Z,18.90
2018-09-05T04:06:05.816Z,17.10
2018-09-05T04:08:35.177Z,17.07
2018-09-05T04:11:07.958Z,16.57
2018-09-05T04:13:37.156Z,16.70
2018-09-05T04:16:13.894Z,17.80
2018-09-05T04:18:43.101Z,18.77
2018-09-05T04:21:13.524Z,19.17
2018-09-05T04:26:06.378Z,17.30
2018-09-05T04:28:35.902Z,17.30
2018-09-05T04:31:05.333Z,16.70
2018-09-05T04:33:34.582Z,16.07
2018-09-05T04:36:04.266Z,16.30
2018-09-05T04:38:33.639Z,16.70
2018-09-05T04:41:02.890Z,17.37
2018-09-05T04:43:34.394Z,18.20
2018-09-05T04:46:03.569Z,16.23
2018-09-05T04:48:32.746Z,17.07
2018-09-05T04:51:02.361Z,15.70
2018-09-05T04:53:31.627Z,16.30
2018-09-05T04:56:01.126Z,14.80
2018-09-05T04:58:31.795Z,15.33
2018-09-05T05:01:01.004Z,14.73
2018-09-05T05:03:34.025Z,15.47
2018-09-05T05:06:03.746Z,16.87
2018-09-05T05:08:40.084Z,16.87
2018-09-05T05:11:09.306Z,15.97
2018-09-05T05:13:39.854Z,16.60
2018-09-05T05:16:09.820Z,17.37
2018-09-05T05:18:43.086Z,18.53
2018-09-05T05:21:12.677Z,17.40
2018-09-05T05:23:45.637Z,17.87
2018-09-05T05:26:14.936Z,18.13
2018-09-05T05:28:48.748Z,19.20
2018-09-05T05:31:17.985Z,18.33
2018-09-05T05:33:51.026Z,20.10
2018-09-05T05:36:20.600Z,19.57
2018-09-05T05:38:57.215Z,19.83
2018-09-05T05:41:26.647Z,19.43
2018-09-05T05:43:57.024Z,19.03
2018-09-05T05:46:26.381Z,19.13
2018-09-05T05:48:59.772Z,18.47
2018-09-05T05:51:29.025Z,18.87
2018-09-05T05:54:05.507Z,17.93
2018-09-05T05:56:35.043Z,21.30
2018-09-05T05:59:05.530Z,19.47
2018-09-05T06:01:35.046Z,21.20
2018-09-05T06:04:16.980Z,22.03
2018-09-05T06:06:46.258Z,25.60
2018-09-05T06:09:15.486Z,23.43
2018-09-05T06:11:45.155Z,25.70
2018-09-05T06:14:14.455Z,24.33
2018-09-05T06:16:43.764Z,26.67
2018-09-05T06:19:17.070Z,25.73
2018-09-05T06:21:46.353Z,24.80
2018-09-05T06:24:28.039Z,24.07
2018-09-05T06:26:57.824Z,23.23
2018-09-05T06:29:27.139Z,22.63
2018-09-05T06:31:56.422Z,21.53
2018-09-05T06:34:26.338Z,23.33
2018-09-05T06:36:55.804Z,22.87
2018-09-05T06:39:26.911Z,22.27
2018-09-05T06:41:56.701Z,22.43
2018-09-05T06:44:29.689Z,22.10
2018-09-05T06:46:58.930Z,21.87
2018-09-05T06:49:32.678Z,21.80
2018-09-05T06:52:02.007Z,21.00
2018-09-05T06:54:34.669Z,20.47
2018-09-05T06:57:04.511Z,20.10
2018-09-05T06:59:40.875Z,21.10
2018-09-05T07:02:10.131Z,20.57
2018-09-05T07:04:42.552Z,20.10
2018-09-05T07:07:12.005Z,21.20
2018-09-05T07:09:41.860Z,20.67
2018-09-05T07:12:11.453Z,21.50
2018-09-05T07:14:48.293Z,21.73
2018-09-05T07:17:17.557Z,22.40
2018-09-05T07:19:47.934Z,21.90
2018-09-05T07:22:17.445Z,21.17
2018-09-05T07:24:54.273Z,23.33
2018-09-05T07:27:23.527Z,23.23
2018-09-05T07:29:53.253Z,23.50
2018-09-05T07:32:23.572Z,23.80
2018-09-05T07:34:57.396Z,25.20
2018-09-05T07:37:29.983Z,25.87
2018-09-05T07:40:01.333Z,25.13
2018-09-05T07:42:31.936Z,24.80
2018-09-05T07:45:02.437Z,24.27
2018-09-05T07:47:31.694Z,23.87
2018-09-05T07:50:05.762Z,26.27
2018-09-05T07:52:35.625Z,25.87
2018-09-05T07:55:08.773Z,31.17
2018-09-05T07:57:38.557Z,26.63
2018-09-05T08:00:15.913Z,26.53
2018-09-05T08:02:45.575Z,25.03
2018-09-05T08:05:15.318Z,23.97
2018-09-05T08:07:44.741Z,24.07
2018-09-05T08:10:17.287Z,24.07
2018-09-05T08:12:48.926Z,22.63
2018-09-05T08:15:21.544Z,23.87
2018-09-05T08:17:50.789Z,23.53
2018-09-05T08:20:23.605Z,22.60
2018-09-05T08:22:53.237Z,23.20
2018-09-05T08:25:25.974Z,24.33
2018-09-05T08:27:55.365Z,23.30
2018-09-05T08:30:28.387Z,22.97
2018-09-05T08:32:58.101Z,24.53
2018-09-05T08:35:29.024Z,25.77
2018-09-05T08:37:58.662Z,26.50
2018-09-05T08:40:31.820Z,25.37
2018-09-05T08:43:01.077Z,23.07
2018-09-05T08:45:35.662Z,23.57
2018-09-05T08:48:04.800Z,23.93
2018-09-05T08:50:37.678Z,24.13
2018-09-05T08:53:07.241Z,22.67
2018-09-05T08:55:40.111Z,25.00
2018-09-05T08:58:09.342Z,25.00
2018-09-05T09:00:42.750Z,26.13
2018-09-05T09:03:12.018Z,26.97
2018-09-05T09:05:45.104Z,25.07
2018-09-05T09:08:14.671Z,22.83
2018-09-05T09:10:48.042Z,23.27
2018-09-05T09:13:17.357Z,26.00
2018-09-05T09:15:55.553Z,27.17
2018-09-05T09:18:24.876Z,27.07
2018-09-05T09:20:54.186Z,27.83
2018-09-05T09:23:23.682Z,29.00
2018-09-05T09:25:56.303Z,28.47
2018-09-05T09:28:25.680Z,29.27
2018-09-05T09:30:59.079Z,31.83
2018-09-05T09:33:28.357Z,31.13
2018-09-05T09:36:01.487Z,33.60
2018-09-05T09:38:31.010Z,31.63
2018-09-05T09:41:04.173Z,33.20
2018-09-05T09:43:33.400Z,37.13
2018-09-05T09:46:10.774Z,34.87
2018-09-05T09:48:40.138Z,37.87
2018-09-05T09:51:12.484Z,34.83
2018-09-05T09:53:41.988Z,35.97
2018-09-05T09:56:14.898Z,35.27
2018-09-05T09:58:44.202Z,36.77
2018-09-05T10:01:21.731Z,33.27
2018-09-05T10:03:56.191Z,34.93
2018-09-05T10:06:30.517Z,32.80
2018-09-05T10:09:05.268Z,33.10
2018-09-05T10:11:39.559Z,32.83
2018-09-05T10:14:11.777Z,33.93
2018-09-05T10:16:45.263Z,31.37
2018-09-05T10:19:15.027Z,29.30
2018-09-05T10:21:45.594Z,25.70
2018-09-05T10:24:15.032Z,24.23
2018-09-05T10:26:44.500Z,24.60
2018-09-05T10:29:14.208Z,27.13
2018-09-05T10:31:44.754Z,24.57
2018-09-05T10:34:14.248Z,23.50
2018-09-05T10:36:43.596Z,24.17
2018-09-05T10:39:13.209Z,21.67
2018-09-05T10:41:42.623Z,24.80
2018-09-05T10:44:12.050Z,22.90
2018-09-05T10:46:41.645Z,24.83
2018-09-05T10:49:10.943Z,25.10
2018-09-05T10:51:47.330Z,23.10
2018-09-05T10:54:17.034Z,23.77
2018-09-05T10:56:46.443Z,23.90
2018-09-05T10:59:15.711Z,24.40
2018-09-05T11:01:47.982Z,24.30
2018-09-05T11:04:17.340Z,20.40
2018-09-05T11:06:54.709Z,18.97
2018-09-05T11:09:24.290Z,20.63
2018-09-05T11:11:54.277Z,20.73
2018-09-05T11:14:23.607Z,24.30
2018-09-05T11:16:56.289Z,29.93
2018-09-05T11:19:25.700Z,29.20
2018-09-05T11:22:00.337Z,29.63
2018-09-05T11:24:29.771Z,27.80
2018-09-05T11:27:06.590Z,26.63
2018-09-05T11:29:36.273Z,27.17
2018-09-05T11:32:05.651Z,24.50
2018-09-05T11:34:35.093Z,28.57
2018-09-05T11:37:08.524Z,26.80
2018-09-05T11:39:37.937Z,26.30
2018-09-05T11:42:14.657Z,30.20
2018-09-05T11:47:23.896Z,28.33
2018-09-05T11:49:53.299Z,28.23
2018-09-05T11:52:22.924Z,26.23
2018-09-05T11:54:52.667Z,24.80
2018-09-05T11:57:22.088Z,27.13
2018-09-05T11:59:51.449Z,24.20
2018-09-05T12:02:22.265Z,28.07
2018-09-05T12:04:51.583Z,26.83
2018-09-05T12:07:24.613Z,24.53
2018-09-05T12:09:54.297Z,22.87
2018-09-05T12:12:27.600Z,20.90
2018-09-05T12:14:56.976Z,21.40
2018-09-05T12:17:29.608Z,19.37
2018-09-05T12:19:59.061Z,19.13
2018-09-05T12:22:32.270Z,18.73
2018-09-05T12:25:01.918Z,17.07
2018-09-05T12:27:34.921Z,15.90
2018-09-05T12:30:04.447Z,17.30
2018-09-05T12:32:41.444Z,17.40
2018-09-05T12:35:11.088Z,15.07
2018-09-05T12:37:41.571Z,16.60
2018-09-05T12:40:11.021Z,22.43
2018-09-05T12:42:44.211Z,19.23
2018-09-05T12:45:13.610Z,19.67
2018-09-05T12:47:50.022Z,17.03
2018-09-05T12:50:19.626Z,18.60
2018-09-05T12:52:49.479Z,17.97
2018-09-05T12:55:18.813Z,19.37
2018-09-05T12:57:52.880Z,19.07
2018-09-05T13:00:22.219Z,20.50
2018-09-05T13:02:55.368Z,19.60
2018-09-05T13:05:25.158Z,22.03
2018-09-05T13:08:02.093Z,23.30
2018-09-05T13:10:31.910Z,22.63
2018-09-05T13:13:01.519Z,24.37
2018-09-05T13:15:31.278Z,28.10
2018-09-05T13:18:04.507Z,25.33
2018-09-05T13:20:34.449Z,22.40
2018-09-05T13:23:07.301Z,26.00
2018-09-05T13:25:36.879Z,28.30
2018-09-05T13:28:13.448Z,30.83
2018-09-05T13:30:42.841Z,28.77
2018-09-05T13:33:15.689Z,26.57
2018-09-05T13:35:45.050Z,27.10
2018-09-05T13:38:17.747Z,25.60
2018-09-05T13:40:47.521Z,23.60
2018-09-05T13:43:20.370Z,23.10
2018-09-05T13:45:49.745Z,22.93
2018-09-05T13:48:20.983Z,24.93
2018-09-05T13:50:50.512Z,24.57
2018-09-05T13:53:28.167Z,24.40
2018-09-05T13:55:57.812Z,24.93
2018-09-05T13:58:29.753Z,24.10
2018-09-05T14:00:59.194Z,23.00
2018-09-05T14:03:28.901Z,23.30
2018-09-05T14:05:58.275Z,21.13
2018-09-05T14:08:31.245Z,22.30
2018-09-05T14:11:01.114Z,25.03
2018-09-05T14:13:34.770Z,23.37
2018-09-05T14:16:04.551Z,23.87
2018-09-05T14:18:36.443Z,21.20
2018-09-05T14:21:06.228Z,21.83
2018-09-05T14:23:43.762Z,22.33
2018-09-05T14:26:13.484Z,22.87
2018-09-05T14:28:43.016Z,21.17
2018-09-05T14:31:12.475Z,22.70
2018-09-05T14:33:45.739Z,22.40
2018-09-05T14:36:15.059Z,22.33
2018-09-05T14:38:47.324Z,21.67
2018-09-05T14:41:17.417Z,20.53
2018-09-05T14:43:51.191Z,20.07
2018-09-05T14:46:20.962Z,23.43
2018-09-05T14:48:55.517Z,20.17
2018-09-05T14:51:25.230Z,28.20
2018-09-05T14:53:58.833Z,28.13
2018-09-05T14:56:28.221Z,27.07
2018-09-05T14:58:59.173Z,27.13
2018-09-05T15:01:28.617Z,25.93
2018-09-05T15:04:02.621Z,25.20
2018-09-05T15:06:33.309Z,23.17
2018-09-05T15:09:09.823Z,25.60
2018-09-05T15:11:39.784Z,25.43
2018-09-05T15:14:10.104Z,24.43
2018-09-05T15:19:16.896Z,24.00
2018-09-05T15:21:46.681Z,22.93
2018-09-05T15:24:16.473Z,18.60
2018-09-05T15:26:45.824Z,23.27
2018-09-05T15:29:16.975Z,22.60
2018-09-05T15:31:46.595Z,20.23
2018-09-05T15:34:20.013Z,17.20
2018-09-05T15:36:49.602Z,18.57
2018-09-05T15:39:21.712Z,17.73
2018-09-05T15:41:51.103Z,20.23
2018-09-05T15:44:23.917Z,19.73
2018-09-05T15:46:53.728Z,18.33
2018-09-05T15:49:27.868Z,17.63
2018-09-05T15:51:57.266Z,16.37
2018-09-05T15:54:28.840Z,16.90
2018-09-05T15:56:58.641Z,17.23
2018-09-05T15:59:35.364Z,17.60
2018-09-05T16:02:04.819Z,14.77
2018-09-05T16:04:34.447Z,15.80
2018-09-05T16:07:03.980Z,14.77
2018-09-05T16:09:37.649Z,15.43
2018-09-05T16:12:07.046Z,13.47
2018-09-05T16:14:40.253Z,15.00
2018-09-05T16:17:09.580Z,15.80
2018-09-05T16:19:43.729Z,14.90
2018-09-05T16:22:13.248Z,14.10
2018-09-05T16:24:45.786Z,14.33
2018-09-05T16:27:15.220Z,13.40
2018-09-05T16:29:49.654Z,12.77
2018-09-05T16:32:19.084Z,14.93
2018-09-05T16:34:52.266Z,15.30
2018-09-05T16:37:23.070Z,14.03
2018-09-05T16:39:55.642Z,13.67
2018-09-05T16:42:25.102Z,12.67
2018-09-05T16:45:02.489Z,12.30
2018-09-05T16:47:31.738Z,12.97
2018-09-05T16:50:01.077Z,14.40
2018-09-05T16:52:31.208Z,14.10
2018-09-05T16:55:04.123Z,14.00
2018-09-05T16:57:33.810Z,13.17
2018-09-05T17:00:08.846Z,13.80
2018-09-05T17:02:38.296Z,13.10
2018-09-05T17:05:10.103Z,13.13
2018-09-05T17:07:39.634Z,13.37
2018-09-05T17:10:12.750Z,13.10
2018-09-05T17:12:42.387Z,13.90
2018-09-05T17:15:15.205Z,13.67
2018-09-05T17:17:44.825Z,13.50
2018-09-05T17:20:17.819Z,13.80
2018-09-05T17:22:48.579Z,13.67
2018-09-05T17:25:19.464Z,13.40
2018-09-05T17:27:49.110Z,13.63
2018-09-05T17:30:22.473Z,13.43
2018-09-05T17:32:51.953Z,14.50
2018-09-05T17:35:28.814Z,13.43
2018-09-05T17:37:58.390Z,13.50
2018-09-05T17:40:27.801Z,13.97
2018-09-05T17:42:57.660Z,13.00
2018-09-05T17:45:30.717Z,12.50
2018-09-05T17:48:00.199Z,13.23
2018-09-05T17:50:38.002Z,14.60
2018-09-05T17:53:07.429Z,15.10
2018-09-05T17:55:36.851Z,15.17
2018-09-05T17:58:06.766Z,15.93
2018-09-05T18:00:39.084Z,15.67
2018-09-05T18:03:08.542Z,14.93
2018-09-05T18:05:45.903Z,15.10
2018-09-05T18:08:15.315Z,14.27
2018-09-05T18:10:44.667Z,15.10
2018-09-05T18:13:15.623Z,16.60
2018-09-05T18:15:47.281Z,14.37
2018-09-05T18:18:16.715Z,13.97
2018-09-05T18:20:49.366Z,12.27
2018-09-05T18:23:19.273Z,11.63
2018-09-05T18:25:53.149Z,14.33
2018-09-05T18:28:22.998Z,11.67
2018-09-05T18:30:56.499Z,13.37
2018-09-05T18:33:25.924Z,12.40
2018-09-05T18:36:02.850Z,11.80
2018-09-05T18:38:32.659Z,12.60
2018-09-05T18:41:02.703Z,12.00
2018-09-05T18:43:32.328Z,11.93
2018-09-05T18:46:03.685Z,13.22
2018-09-05T18:48:33.378Z,12.70
2018-09-05T18:51:15.284Z,12.37
2018-09-05T18:53:45.972Z,12.87
2018-09-05T18:56:15.932Z,14.23
2018-09-05T18:58:45.533Z,13.00
2018-09-05T19:01:15.659Z,12.30
2018-09-05T19:03:45.620Z,12.03
2018-09-05T19:06:15.225Z,12.43
2018-09-05T19:08:45.165Z,12.00
2018-09-05T19:11:22.571Z,12.83
2018-09-05T19:13:52.051Z,12.90
2018-09-05T19:16:21.599Z,12.37
2018-09-05T19:18:52.217Z,12.20
2018-09-05T19:21:24.122Z,11.90
2018-09-05T19:23:53.915Z,12.57
2018-09-05T19:26:28.239Z,11.20
2018-09-05T19:28:58.072Z,11.57
2018-09-05T19:31:28.244Z,11.03
2018-09-05T19:33:57.866Z,12.63
2018-09-05T19:36:34.962Z,13.50
2018-09-05T19:39:05.385Z,18.50
2018-09-05T19:41:34.991Z,22.13
2018-09-05T19:44:05.295Z,24.63
2018-09-05T19:46:36.046Z,24.37
2018-09-05T19:49:06.572Z,27.90
2018-09-05T19:51:39.705Z,25.33
2018-09-05T19:54:09.583Z,24.30
2018-09-05T19:56:42.118Z,23.37
2018-09-05T19:59:11.622Z,24.03
2018-09-05T20:01:49.626Z,24.30
2018-09-05T20:04:19.183Z,22.77
2018-09-05T20:06:48.789Z,22.27
2018-09-05T20:09:18.303Z,21.13
2018-09-05T20:11:51.001Z,20.57
2018-09-05T20:14:22.024Z,22.47
2018-09-05T20:16:52.593Z,22.17
2018-09-05T20:19:22.219Z,20.00
2018-09-05T20:21:56.365Z,21.30
2018-09-05T20:24:26.087Z,22.83
2018-09-05T20:26:58.975Z,20.57
2018-09-05T20:29:28.634Z,21.53
2018-09-05T20:32:01.752Z,22.33
2018-09-05T20:34:31.238Z,21.43
2018-09-05T20:37:05.023Z,20.63
2018-09-05T20:39:34.494Z,21.57
2018-09-05T20:42:07.960Z,21.27
2018-09-05T20:44:37.501Z,25.87
2018-09-05T20:47:14.637Z,23.53
2018-09-05T20:49:44.254Z,24.40
2018-09-05T20:52:15.508Z,23.37
2018-09-05T20:54:46.361Z,24.27
2018-09-05T20:57:17.063Z,26.20
2018-09-05T20:59:46.475Z,25.93
2018-09-05T21:02:21.060Z,25.73
2018-09-05T21:04:51.319Z,26.13
2018-09-05T21:07:22.399Z,26.47
2018-09-05T21:09:52.111Z,28.37
2018-09-05T21:12:25.020Z,26.63
2018-09-05T21:14:54.401Z,27.37
2018-09-05T21:17:27.521Z,27.40
2018-09-05T21:19:57.950Z,26.43
2018-09-05T21:22:29.803Z,27.97
2018-09-05T21:24:59.172Z,27.00
2018-09-05T21:27:32.318Z,26.97
2018-09-05T21:30:02.943Z,25.77
2018-09-05T21:32:33.125Z,28.03
2018-09-05T21:35:02.833Z,28.87
2018-09-05T21:37:36.552Z,28.07
2018-09-05T21:40:06.058Z,28.17
2018-09-05T21:42:39.431Z,28.43
2018-09-05T21:45:09.124Z,28.67
2018-09-05T21:47:42.264Z,29.30
2018-09-05T21:50:11.877Z,29.30
2018-09-05T21:52:45.309Z,27.97
2018-09-05T21:55:14.776Z,29.23
2018-09-05T21:57:47.949Z,27.30
2018-09-05T22:00:17.568Z,28.20
2018-09-05T22:02:50.565Z,28.07
2018-09-05T22:05:21.265Z,27.00
2018-09-05T22:07:52.593Z,28.40
2018-09-05T22:10:22.178Z,28.33
2018-09-05T22:12:58.986Z,29.80
2018-09-05T22:15:32.571Z,30.70
2018-09-05T22:18:02.047Z,31.53
2018-09-05T22:20:31.266Z,32.03
2018-09-05T22:23:02.093Z,32.97
2018-09-05T22:25:31.650Z,31.87
2018-09-05T22:28:04.588Z,32.60
2018-09-05T22:30:34.377Z,28.27
2018-09-05T22:33:07.436Z,26.17
2018-09-05T22:35:36.735Z,25.93
2018-09-05T22:38:11.163Z,25.67
2018-09-05T22:40:45.779Z,24.87
2018-09-05T22:43:25.898Z,26.67
2018-09-05T22:53:01.393Z,25.83
2018-09-05T23:05:32.204Z,27.87
2018-09-05T23:08:46.754Z,27.30
2018-09-05T23:11:34.457Z,30.30
2018-09-05T23:19:18.189Z,34.83
2018-09-05T23:21:47.539Z,38.30
2018-09-05T23:24:17.222Z,39.87
2018-09-05T23:26:46.470Z,42.67
2018-09-05T23:29:15.850Z,41.57
2018-09-05T23:31:45.391Z,42.23
2018-09-05T23:34:14.748Z,43.10
2018-09-05T23:36:44.073Z,41.53
2018-09-05T23:39:13.690Z,40.93
2018-09-05T23:41:43.002Z,41.40
2018-09-05T23:44:12.247Z,40.70
2018-09-05T23:46:45.966Z,40.33
2018-09-05T23:49:15.243Z,41.40
2018-09-05T23:51:51.751Z,40.23
2018-09-05T23:54:21.688Z,41.97
2018-09-05T23:56:51.244Z,42.40
2018-09-05T23:59:20.534Z,43.17
